KLM59W EDDH-EHAM
Flight info
| Callsign | KLM59W |
|---|---|
| Flight time | 0h 42m |
| Altitude | 24000 |
| Route | WSN5G/33 WSN DCT ITMIZ DCT BLUFA |
| Aircraft | B738/M-SABDFGRVYL/LB2 |
Departure
| Time | 2026-04-30 17:56 |
|---|---|
| Airport | Hamburg Helmut Schmidt Airport (EDDH) |
Arrival
| Time | 2026-04-30 18:39 |
|---|---|
| Airport | Amsterdam Airport Schiphol (EHAM) |
| Time | Latitude | Longitude | Altitude | Speed | Heading |
|---|---|---|---|---|---|
| 2026-04-30 17:39 | 53.63292 | 10.00351 | 47 ft | 1 kts | 87° |
| 2026-04-30 17:42 | 53.63290 | 10.00302 | 47 ft | 4 kts | 87° |
| 2026-04-30 17:43 | 53.63288 | 10.00219 | 45 ft | 3 kts | 87° |
| 2026-04-30 17:44 | 53.63323 | 10.00166 | 45 ft | 1 kts | 176° |
| 2026-04-30 17:48 | 53.63243 | 10.00176 | 47 ft | 9 kts | 176° |
| 2026-04-30 17:49 | 53.62996 | 10.00106 | 45 ft | 11 kts | 212° |
| 2026-04-30 17:50 | 53.62900 | 9.99925 | 47 ft | 2 kts | 243° |
| 2026-04-30 17:51 | 53.62896 | 9.99912 | 44 ft | 0 kts | 243° |
| 2026-04-30 17:52 | 53.62866 | 9.99814 | 44 ft | 6 kts | 243° |
| 2026-04-30 17:53 | 53.62875 | 9.99739 | 43 ft | 0 kts | 332° |
| 2026-04-30 17:55 | 53.64353 | 9.98466 | 60 ft | 166 kts | 333° |
| 2026-04-30 17:56 | 53.68710 | 9.94163 | 2621 ft | 189 kts | 333° |
| 2026-04-30 17:57 | 53.71875 | 9.90466 | 4708 ft | 203 kts | 295° |
| 2026-04-30 17:58 | 53.70513 | 9.83323 | 5810 ft | 238 kts | 244° |
| 2026-04-30 17:59 | 53.67966 | 9.71715 | 7288 ft | 294 kts | 251° |
| 2026-04-30 18:00 | 53.65144 | 9.58479 | 10204 ft | 307 kts | 248° |
| 2026-04-30 18:00 | 53.62598 | 9.47756 | 11119 ft | 359 kts | 248° |
| 2026-04-30 18:01 | 53.60693 | 9.39682 | 12082 ft | 377 kts | 248° |
| 2026-04-30 18:02 | 53.57762 | 9.27237 | 14171 ft | 387 kts | 247° |
| 2026-04-30 18:02 | 53.54734 | 9.14435 | 16116 ft | 397 kts | 248° |
| 2026-04-30 18:03 | 53.51627 | 9.01378 | 18043 ft | 408 kts | 248° |
| 2026-04-30 18:04 | 53.48406 | 8.87923 | 19806 ft | 418 kts | 248° |
| 2026-04-30 18:05 | 53.44020 | 8.69737 | 22102 ft | 425 kts | 248° |
| 2026-04-30 18:06 | 53.39479 | 8.51067 | 24115 ft | 436 kts | 248° |
| 2026-04-30 18:07 | 53.34877 | 8.32307 | 24417 ft | 433 kts | 248° |
| 2026-04-30 18:08 | 53.31416 | 8.18305 | 24426 ft | 435 kts | 247° |
| 2026-04-30 18:09 | 53.26789 | 7.99720 | 24412 ft | 431 kts | 247° |
| 2026-04-30 18:10 | 53.22168 | 7.81317 | 24416 ft | 429 kts | 247° |
| 2026-04-30 18:11 | 53.17524 | 7.62971 | 24409 ft | 429 kts | 246° |
| 2026-04-30 18:11 | 53.13976 | 7.49060 | 24412 ft | 442 kts | 246° |
| 2026-04-30 18:12 | 53.10344 | 7.34903 | 24401 ft | 443 kts | 246° |
| 2026-04-30 18:13 | 53.07915 | 7.25487 | 24398 ft | 443 kts | 246° |
| 2026-04-30 18:13 | 53.04213 | 7.13368 | 24392 ft | 439 kts | 240° |
| 2026-04-30 18:14 | 53.00738 | 7.03140 | 24392 ft | 434 kts | 239° |
| 2026-04-30 18:15 | 52.96348 | 6.90011 | 24061 ft | 438 kts | 240° |
| 2026-04-30 18:15 | 52.91998 | 6.76898 | 22704 ft | 428 kts | 239° |
| 2026-04-30 18:16 | 52.89137 | 6.68302 | 21785 ft | 424 kts | 239° |
| 2026-04-30 18:16 | 52.86286 | 6.59772 | 20879 ft | 422 kts | 239° |
| 2026-04-30 18:17 | 52.84865 | 6.55532 | 20427 ft | 421 kts | 238° |
| 2026-04-30 18:17 | 52.83442 | 6.51299 | 19984 ft | 420 kts | 238° |
| 2026-04-30 18:17 | 52.80613 | 6.42889 | 19068 ft | 417 kts | 238° |
| 2026-04-30 18:18 | 52.79203 | 6.38709 | 18600 ft | 416 kts | 238° |
| 2026-04-30 18:18 | 52.77795 | 6.34542 | 18076 ft | 414 kts | 238° |
| 2026-04-30 18:18 | 52.76398 | 6.30415 | 17624 ft | 410 kts | 238° |
| 2026-04-30 18:18 | 52.75011 | 6.26325 | 17179 ft | 406 kts | 238° |
| 2026-04-30 18:19 | 52.73636 | 6.22276 | 16722 ft | 403 kts | 238° |
| 2026-04-30 18:19 | 52.72269 | 6.18259 | 16291 ft | 400 kts | 237° |
| 2026-04-30 18:19 | 52.71370 | 6.15619 | 16006 ft | 398 kts | 237° |
| 2026-04-30 18:19 | 52.70018 | 6.11657 | 15573 ft | 395 kts | 237° |
| 2026-04-30 18:20 | 52.68676 | 6.07729 | 15143 ft | 393 kts | 237° |
| 2026-04-30 18:20 | 52.67337 | 6.03818 | 14714 ft | 391 kts | 237° |
| 2026-04-30 18:20 | 52.66004 | 5.99927 | 14284 ft | 389 kts | 237° |
| 2026-04-30 18:20 | 52.64678 | 5.96067 | 13817 ft | 386 kts | 237° |
| 2026-04-30 18:21 | 52.63364 | 5.92244 | 13364 ft | 381 kts | 237° |
| 2026-04-30 18:21 | 52.62067 | 5.88473 | 12932 ft | 376 kts | 237° |
| 2026-04-30 18:21 | 52.60784 | 5.84754 | 12514 ft | 371 kts | 237° |
| 2026-04-30 18:21 | 52.59512 | 5.81071 | 12103 ft | 369 kts | 237° |
| 2026-04-30 18:22 | 52.58249 | 5.77421 | 11692 ft | 366 kts | 237° |
| 2026-04-30 18:22 | 52.55743 | 5.70190 | 10914 ft | 361 kts | 236° |
| 2026-04-30 18:22 | 52.54517 | 5.66657 | 10761 ft | 350 kts | 236° |
| 2026-04-30 18:23 | 52.53328 | 5.63232 | 10599 ft | 340 kts | 236° |
| 2026-04-30 18:23 | 52.52172 | 5.59911 | 10437 ft | 330 kts | 236° |
| 2026-04-30 18:23 | 52.51058 | 5.56673 | 10310 ft | 321 kts | 239° |
| 2026-04-30 18:23 | 52.50196 | 5.53355 | 10300 ft | 311 kts | 246° |
| 2026-04-30 18:24 | 52.48841 | 5.46820 | 9990 ft | 298 kts | 247° |
| 2026-04-30 18:24 | 52.48188 | 5.43616 | 9853 ft | 294 kts | 247° |
| 2026-04-30 18:24 | 52.47530 | 5.40449 | 9720 ft | 293 kts | 246° |
| 2026-04-30 18:25 | 52.46866 | 5.37298 | 9594 ft | 292 kts | 246° |
| 2026-04-30 18:25 | 52.45512 | 5.30969 | 9375 ft | 297 kts | 246° |
| 2026-04-30 18:25 | 52.44822 | 5.27776 | 9249 ft | 297 kts | 246° |
| 2026-04-30 18:26 | 52.43446 | 5.21432 | 9012 ft | 294 kts | 246° |
| 2026-04-30 18:26 | 52.42759 | 5.18273 | 8892 ft | 293 kts | 246° |
| 2026-04-30 18:26 | 52.42073 | 5.15132 | 8781 ft | 292 kts | 246° |
| 2026-04-30 18:27 | 52.40707 | 5.08889 | 8559 ft | 290 kts | 246° |
| 2026-04-30 18:27 | 52.40026 | 5.05788 | 8449 ft | 289 kts | 246° |
| 2026-04-30 18:28 | 52.38666 | 4.99603 | 8212 ft | 288 kts | 246° |
| 2026-04-30 18:28 | 52.37987 | 4.96521 | 8103 ft | 288 kts | 245° |
| 2026-04-30 18:28 | 52.36625 | 4.90358 | 7878 ft | 288 kts | 245° |
| 2026-04-30 18:29 | 52.35944 | 4.87277 | 7771 ft | 288 kts | 245° |
| 2026-04-30 18:29 | 52.33907 | 4.78101 | 7414 ft | 279 kts | 245° |
| 2026-04-30 18:30 | 52.32880 | 4.72105 | 7072 ft | 273 kts | 252° |
| 2026-04-30 18:30 | 52.32015 | 4.66128 | 6650 ft | 267 kts | 252° |
| 2026-04-30 18:31 | 52.31614 | 4.63187 | 6607 ft | 265 kts | 252° |
| 2026-04-30 18:31 | 52.30809 | 4.57305 | 6000 ft | 267 kts | 252° |
| 2026-04-30 18:32 | 52.30002 | 4.51430 | 5505 ft | 263 kts | 252° |
| 2026-04-30 18:32 | 52.29614 | 4.48585 | 5206 ft | 259 kts | 252° |
| 2026-04-30 18:32 | 52.28162 | 4.43608 | 4643 ft | 226 kts | 208° |
| 2026-04-30 18:33 | 52.26792 | 4.42824 | 4537 ft | 200 kts | 174° |
| 2026-04-30 18:33 | 52.24400 | 4.44180 | 4388 ft | 171 kts | 153° |
| 2026-04-30 18:33 | 52.23331 | 4.44982 | 4130 ft | 168 kts | 152° |
| 2026-04-30 18:34 | 52.22291 | 4.45796 | 3848 ft | 165 kts | 146° |
| 2026-04-30 18:34 | 52.21611 | 4.49146 | 3205 ft | 167 kts | 91° |
| 2026-04-30 18:34 | 52.21678 | 4.51023 | 2935 ft | 164 kts | 92° |
| 2026-04-30 18:35 | 52.21736 | 4.52869 | 2672 ft | 162 kts | 92° |
| 2026-04-30 18:35 | 52.21809 | 4.54698 | 2411 ft | 161 kts | 85° |
| 2026-04-30 18:35 | 52.22338 | 4.56384 | 2362 ft | 174 kts | 61° |
| 2026-04-30 18:36 | 52.23577 | 4.59749 | 1991 ft | 171 kts | 66° |
| 2026-04-30 18:36 | 52.24193 | 4.61387 | 1758 ft | 168 kts | 65° |
| 2026-04-30 18:36 | 52.25402 | 4.64548 | 1326 ft | 157 kts | 65° |
| 2026-04-30 18:37 | 52.25966 | 4.66023 | 1114 ft | 149 kts | 65° |
| 2026-04-30 18:37 | 52.26496 | 4.67406 | 952 ft | 135 kts | 65° |
| 2026-04-30 18:37 | 52.26973 | 4.68654 | 765 ft | 126 kts | 65° |
| 2026-04-30 18:37 | 52.27442 | 4.69879 | 582 ft | 128 kts | 62° |
| 2026-04-30 18:38 | 52.27914 | 4.71113 | 422 ft | 127 kts | 63° |
| 2026-04-30 18:38 | 52.28384 | 4.72343 | 237 ft | 130 kts | 63° |
| 2026-04-30 18:38 | 52.28861 | 4.73593 | 47 ft | 130 kts | 62° |
| 2026-04-30 18:38 | 52.29316 | 4.74777 | -1 ft | 110 kts | 58° |
| 2026-04-30 18:39 | 52.29638 | 4.75619 | -2 ft | 65 kts | 58° |
| 2026-04-30 18:39 | 52.29836 | 4.76133 | -5 ft | 45 kts | 58° |
| 2026-04-30 18:39 | 52.29948 | 4.76418 | -4 ft | 19 kts | 53° |
| 2026-04-30 18:39 | 52.30037 | 4.76546 | -3 ft | 16 kts | 31° |
| 2026-04-30 18:40 | 52.30123 | 4.76621 | -2 ft | 11 kts | 27° |
| 2026-04-30 18:40 | 52.30180 | 4.76671 | -2 ft | 7 kts | 28° |
| 2026-04-30 18:40 | 52.30218 | 4.76703 | -2 ft | 6 kts | 28° |
| 2026-04-30 18:40 | 52.30237 | 4.76721 | -2 ft | 2 kts | 28° |
| 2026-04-30 18:41 | 52.30239 | 4.76722 | -2 ft | 0 kts | 28° |
| 2026-04-30 18:41 | 52.30241 | 4.76724 | -2 ft | 1 kts | 28° |
| 2026-04-30 18:41 | 52.30255 | 4.76734 | -2 ft | 3 kts | 22° |
| 2026-04-30 18:42 | 52.30266 | 4.76740 | -2 ft | 2 kts | 16° |
| 2026-04-30 18:42 | 52.30320 | 4.76729 | -2 ft | 4 kts | 333° |
| 2026-04-30 18:42 | 52.30338 | 4.76700 | -2 ft | 3 kts | 304° |
| 2026-04-30 18:45 | 52.30568 | 4.76479 | -2 ft | 0 kts | 58° |